Latest Coastal Weather Observations for Karratha

IDW60701

Issued at 3:55 am WST Saturday 20 September 2014 (issued every 10 minutes, with the page automatically refreshed every 10 minutes)

About coastal observations | Map of coastal stations | Coastal observations for WA | Marine services | Other Formats
Station Details ID: 004083 Name: KARRATHA AERO Lat: -20.71 Lon: 116.77 Height: 5.3 m
Data from the previous 72 hours. | See also: Recent months at Karratha
Date/Time
WST
Temp

°C
Wind Pressure Rain
since 9am
mm
Weather Cloud Vis
km
Sea
Height
m
Swell
Dir
 
Speed
knots
Gust
knots
hPa Trend Height
m
Period
s
Dir
20/03:30am 21.0 W 1 3 1013.5 - 0.0 - - 10 - - - -
20/03:00am 23.0 SW 4 5 1013.5 - 0.0 - - 10 - - - -
20/02:30am 23.6 W 3 4 1013.9 - 0.0 - - 10 - - - -
20/02:00am 23.3 WSW 4 5 1014.0 - 0.0 - - 10 - - - -
20/01:30am 22.4 WSW 4 6 1014.4 - 0.0 - - 10 - - - -
20/01:00am 21.7 W 4 5 1014.7 - 0.0 - - 10 - - - -
20/12:30am 21.6 SSW 6 7 1014.8 - 0.0 - - 10 - - - -
20/12:00am 23.6 WSW 5 6 1015.0 - 0.0 - - 10 - - - -
 
Date/Time
WST
Temp

°C
Wind Pressure Rain
since 9am
mm
Weather Cloud Vis
km
Sea
Height
m
Swell
Dir
 
Speed
knots
Gust
knots
hPa Trend Height
m
Period
s
Dir
19/11:30pm 25.7 WNW 7 8 1015.4 - 0.0 - - 10 - - - -
19/11:00pm 25.8 W 7 8 1015.4 - 0.0 - - 10 - - - -
19/10:30pm 25.1 WNW 7 8 1015.5 - 0.0 - - 10 - - - -
19/10:00pm 25.5 WNW 8 9 1015.9 - 0.0 - - 10 - - - -
19/09:30pm 25.6 WNW 8 9 1015.9 - 0.0 - - 10 - - - -
19/09:00pm 25.8 WNW 7 8 1015.9 - 0.0 - - 10 - - - -
19/08:30pm 26.0 WNW 7 8 1015.8 - 0.0 - - 10 - - - -
19/08:00pm 26.4 NW 8 10 1015.4 - 0.0 - - 10 - - - -
19/07:30pm 26.7 WNW 6 8 1015.2 - 0.0 - - 10 - - - -
19/07:00pm 27.1 NW 8 11 1014.9 - 0.0 - - 10 - - - -
19/06:30pm 27.7 NW 9 11 1014.5 - 0.0 - - 10 - - - -
19/06:00pm 28.7 WNW 8 10 1014.1 - 0.0 - - 10 - - - -
19/05:30pm 29.8 NW 10 13 1013.8 - 0.0 - - 10 - - - -
19/05:00pm 31.0 WNW 10 12 1013.6 - 0.0 - - 10 - - - -
19/04:30pm 31.9 WNW 9 11 1013.4 - 0.0 - - 10 - - - -
19/04:00pm 32.5 NW 8 11 1013.1 - 0.0 - - 10 - - - -
19/03:30pm 32.7 NNW 8 11 1013.3 - 0.0 - - 10 - - - -
19/03:00pm 33.2 NNW 9 11 1013.4 - 0.0 - - 10 - - - -
19/02:30pm 32.6 N 8 11 1013.4 - 0.0 - - 10 - - - -
19/02:00pm 33.2 NNW 8 12 1013.7 - 0.0 - - 10 - - - -
19/01:30pm 33.4 N 7 10 1013.9 - 0.0 - - 10 - - - -
19/01:00pm 33.7 N 7 10 1014.3 - 0.0 - - 10 - - - -
19/12:30pm 33.9 NNE 8 11 1014.5 - 0.0 - - 10 - - - -
19/12:00pm 34.9 W 6 11 1014.8 - 0.0 - Mostly clear 10 - - - -
19/11:30am 33.8 W 6 8 1015.3 - 0.0 - - 10 - - - -
19/11:00am 33.6 W 7 9 1015.6 - 0.0 - - 10 - - - -
19/10:30am 33.3 W 8 11 1015.8 - 0.0 - - 10 - - - -
19/10:00am 33.2 W 7 9 1016.2 - 0.0 - - 10 - - - -
19/09:30am 30.3 W 7 11 1016.4 - 0.0 - - 10 - - - -
19/09:00am 30.8 S 3 7 1016.5 - 0.0 - - 10 - - - -
19/08:30am 28.9 SSE 6 7 1016.6 - 0.0 - - 10 - - - -
19/08:00am 26.1 S 4 6 1016.4 - 0.0 - - 10 - - - -
19/07:30am 23.2 WSW 2 5 1016.2 - 0.0 - - 10 - - - -
19/07:00am 20.9 W 3 5 1015.9 - 0.0 - - 10 - - - -
19/06:30am 19.1 WSW 5 7 1015.6 - 0.0 - - 10 - - - -
19/06:00am 18.4 WSW 5 6 1015.2 - 0.0 - - 10 - - - -
19/05:30am 18.3 WSW 7 9 1014.9 - 0.0 - - 10 - - - -
19/05:00am 18.1 WSW 7 8 1014.6 - 0.0 - - 10 - - - -
19/04:30am 18.3 WSW 5 7 1014.5 - 0.0 - - 10 - - - -
19/04:00am 18.9 WSW 7 8 1014.3 - 0.0 - - 10 - - - -
19/03:30am 20.0 WSW 7 8 1014.3 - 0.0 - - 10 - - - -
19/03:00am 21.8 WSW 10 13 1014.4 - 0.0 - - 10 - - - -
19/02:30am 22.3 WSW 13 16 1014.5 - 0.0 - - 10 - - - -
19/02:00am 22.4 W 15 18 1014.7 - 0.0 - - 10 - - - -
19/01:30am 22.5 WSW 15 19 1014.7 - 0.0 - - 10 - - - -
19/01:00am 22.7 WSW 14 17 1014.9 - 0.0 - - 10 - - - -
19/12:30am 23.2 WSW 15 19 1015.3 - 0.0 - - 10 - - - -
19/12:00am 23.3 W 12 14 1015.3 - 0.0 - - 10 - - - -
 
Date/Time
WST
Temp

°C
Wind Pressure Rain
since 9am
mm
Weather Cloud Vis
km
Sea
Height
m
Swell
Dir
 
Speed
knots
Gust
knots
hPa Trend Height
m
Period
s
Dir
18/11:30pm 23.3 WSW 11 14 1015.5 - 0.0 - - 10 - - - -
18/11:00pm 23.7 WSW 12 15 1015.6 - 0.0 - - 10 - - - -
18/10:30pm 23.9 WSW 12 15 1015.8 - 0.0 - - 10 - - - -
18/10:00pm 24.7 WSW 13 16 1016.0 - 0.0 - - 10 - - - -
18/09:30pm 24.9 WSW 12 16 1016.0 - 0.0 - - 10 - - - -
18/09:00pm 25.2 WSW 11 14 1016.0 - 0.0 - - 10 - - - -
18/08:30pm 25.5 W 12 15 1015.9 - 0.0 - - 10 - - - -
18/08:00pm 26.1 W 13 15 1015.4 - 0.0 - - 10 - - - -
18/07:30pm 26.4 W 13 15 1015.0 - 0.0 - - 10 - - - -
18/07:00pm 26.7 W 13 16 1014.6 - 0.0 - - 10 - - - -
18/06:30pm 27.3 W 13 17 1014.2 - 0.0 - - 10 - - - -
18/06:00pm 28.4 W 13 16 1013.9 - 0.0 - - 10 - - - -
18/05:30pm 29.7 W 11 14 1013.5 - 0.0 - - 10 - - - -
18/05:00pm 30.2 W 12 15 1013.2 - 0.0 - - 10 - - - -
18/04:30pm 30.8 WNW 13 16 1013.1 - 0.0 - - 10 - - - -
18/04:00pm 31.2 WNW 12 16 1013.1 - 0.0 - - 10 - - - -
18/03:30pm 31.7 WNW 13 16 1013.1 - 0.0 - - 10 - - - -
18/03:00pm 30.7 W 14 19 1013.3 - 0.0 - - 10 - - - -
18/02:30pm 30.1 W 15 17 1013.3 - 0.0 - - 10 - - - -
18/02:00pm 31.3 W 12 16 1013.6 - 0.0 - - 10 - - - -
18/01:30pm 31.1 WNW 11 13 1014.1 - 0.0 - - 10 - - - -
18/01:00pm 30.7 WNW 9 13 1014.6 - 0.0 - - 10 - - - -
18/12:30pm 30.9 NW 11 14 1015.1 - 0.0 - - 10 - - - -
18/12:00pm 30.2 WNW 9 11 1015.4 - 0.0 - - 10 - - - -
18/11:30am 29.9 NW 7 10 1015.9 - 0.0 - - 10 - - - -
18/11:00am 29.2 WNW 8 10 1016.2 - 0.0 - - 10 - - - -
18/10:30am 28.5 W 5 8 1016.4 - 0.0 - - 10 - - - -
18/10:00am 27.4 W 5 8 1016.7 - 0.0 - - 10 - - - -
18/09:30am 26.8 W 6 8 1016.6 - 0.0 - - 10 - - - -
18/09:00am 25.5 NW 5 7 1016.8 - 0.0 - - 10 - - - -
18/08:30am 23.6 NW 7 9 1016.8 - 0.0 - - 10 - - - -
18/08:00am 22.9 SW 4 8 1016.2 - 0.0 - - 10 - - - -
18/07:30am 21.2 W 5 8 1015.8 - 0.0 - - 10 - - - -
18/07:00am 19.2 WSW 6 8 1015.5 - 0.0 - - 10 - - - -
18/06:30am 18.6 SW 9 11 1015.1 - 0.0 - - 10 - - - -
18/06:00am 18.8 SW 8 9 1015.0 - 0.0 - - 10 - - - -
18/05:30am 19.2 WNW 4 7 1014.9 - 0.0 - - 10 - - - -
18/05:00am 19.1 WSW 8 9 1014.4 - 0.0 - - 10 - - - -
18/04:30am 18.8 WSW 4 5 1014.3 - 0.0 - - 10 - - - -
18/04:00am 19.3 SW 7 10 1013.9 - 0.0 - - 10 - - - -
18/03:30am 20.7 WSW 13 15 1014.0 - 0.0 - - 10 - - - -
18/03:00am 20.9 WSW 11 12 1014.2 - 0.0 - - 10 - - - -
18/02:30am 21.3 W 9 12 1014.5 - 0.0 - - 10 - - - -
18/02:00am 21.6 W 10 12 1014.4 - 0.0 - - 10 - - - -
18/01:30am 21.3 WSW 11 13 1014.3 - 0.0 - - 10 - - - -
18/01:00am 21.4 WSW 10 12 1014.6 - 0.0 - - 10 - - - -
18/12:30am 21.8 WSW 12 15 1014.9 - 0.0 - - 10 - - - -
18/12:00am 21.8 WSW 14 19 1015.0 - 0.0 - - 10 - - - -
 
Date/Time
WST
Temp

°C
Wind Pressure Rain
since 9am
mm
Weather Cloud Vis
km
Sea
Height
m
Swell
Dir
 
Speed
knots
Gust
knots
hPa Trend Height
m
Period
s
Dir
17/11:30pm 22.1 W 15 19 1015.2 - 0.0 - - 10 - - - -
17/11:00pm 22.6 W 15 19 1015.5 - 0.0 - - 10 - - - -
17/10:30pm 22.7 W 13 17 1015.5 - 0.0 - - 10 - - - -
17/10:00pm 23.0 W 14 16 1015.5 - 0.0 - - 10 - - - -
17/09:30pm 23.3 W 15 19 1015.6 - 0.0 - - 10 - - - -
17/09:00pm 23.8 W 14 17 1015.1 - 0.0 - - 10 - - - -
17/08:30pm 24.4 W 13 15 1014.8 - 0.0 - - 10 - - - -
17/08:00pm 24.5 W 11 15 1014.4 - 0.0 - - 10 - - - -
17/07:30pm 24.8 W 11 14 1013.9 - 0.0 - - 10 - - - -
17/07:00pm 25.0 W 11 15 1013.4 - 0.0 - - 10 - - - -
17/06:30pm 25.7 W 13 16 1013.0 - 0.0 - - 10 - - - -
17/06:00pm 25.8 W 14 16 1012.8 - 0.0 - - 10 - - - -
17/05:30pm 27.2 W 14 17 1012.5 - 0.0 - - 10 - - - -
17/05:00pm 28.0 W 14 17 1012.2 - 0.0 - - 10 - - - -
17/04:30pm 28.8 W 15 18 1012.1 - 0.0 - - 10 - - - -
17/04:00pm 29.6 W 16 19 1011.9 - 0.0 - - 10 - - - -
17/03:30pm 29.8 W 16 19 1011.8 - 0.0 - - 10 - - - -
17/03:00pm 30.3 W 15 19 1012.0 - 0.0 - - 10 - - - -
17/02:30pm 30.6 W 16 19 1011.9 - 0.0 - - 10 - - - -
17/02:00pm 30.0 W 16 19 1012.0 - 0.0 - - 10 - - - -
17/01:30pm 30.6 W 17 19 1012.2 - 0.0 - - 10 - - - -
17/01:00pm 31.3 W 15 19 1012.5 - 0.0 - - 10 - - - -
17/12:30pm 30.7 W 15 19 1012.8 - 0.0 - - 10 - - - -
17/12:00pm 29.7 W 14 18 1013.0 - 0.0 - - 10 - - - -
17/11:30am 29.7 W 14 17 1013.5 - 0.0 - - 10 - - - -
17/11:00am 29.9 W 10 13 1013.9 - 0.0 - - 10 - - - -
17/10:30am 29.2 W 9 13 1014.2 - 0.0 - - 10 - - - -
17/10:00am 27.9 W 11 15 1014.3 - 0.0 - - 10 - - - -
17/09:30am 26.1 W 13 16 1014.3 - 0.0 - - 10 - - - -
17/09:00am 24.6 W 11 13 1014.3 - 0.0 - - 10 - - - -
17/08:30am 23.4 WSW 8 9 1014.3 - 0.0 - - 10 - - - -
17/08:00am 22.6 WSW 8 11 1014.1 - 0.0 - - 10 - - - -
17/07:30am 22.0 WSW 8 10 1013.8 - 0.0 - - 10 - - - -
17/07:00am 20.6 SW 7 9 1013.4 - 0.0 - - 10 - - - -
17/06:30am 19.9 SW 7 9 1013.0 - 0.0 - - 10 - - - -
17/06:00am 19.9 WSW 9 10 1012.6 - 0.0 - - 10 - - - -
17/05:30am 19.8 WSW 7 11 1012.1 - 0.0 - - 10 - - - -
17/05:00am 20.0 WSW 11 13 1011.8 - 0.0 - - 10 - - - -
17/04:30am 20.6 SW 9 11 1012.0 - 0.0 - - 10 - - - -
17/04:00am 21.2 WSW 12 15 1011.6 - 0.0 - - 10 - - - -

Other Formats:

Comma delimited format used in spreadsheet applications
http://www.bom.gov.au/fwo/IDW60701/IDW60701.95307.axf

JavaScript Object Notation format (JSON) in row-major order
http://www.bom.gov.au/fwo/IDW60701/IDW60701.95307.json